Time;durP1;ratioP1;P1;durP2;ratioP2;P2;SDS_P1;SDS_P2;PMS_P1;PMS_P2;Temp;Humidity;BMP_temperature;BMP_pressure;BME280_temperature;BME280_humidity;BME280_pressure;Samples;Min_cycle;Max_cycle;Signal;HPM_P1;HPM_P2
2021/07/14 17:08:32;;;;;;;;;;;;;;;;;;4173828;34;20574;-74
2021/07/14 17:11:07;;;;;;;9.13;6.03;;;;;;;;;;4167950;34;20378;-79
2021/07/14 17:13:49;;;;;;;13.62;6.12;;;;;;;;;;4164650;34;20174;-80
2021/07/14 17:16:28;;;;;;;13.43;7.03;;;;;;;;;;4163881;34;20094;-73
2021/07/14 17:19:28;;;;;;;17.80;6.78;;;;;;;;;;4152719;34;20113;-72
2021/07/14 17:22:05;;;;;;;19.00;8.77;;;;;;;;;;4166060;34;20154;-75
2021/07/14 17:24:32;;;;;;;29.27;12.00;;;;;;;;;;4153744;34;20208;-80
2021/07/14 17:27:02;;;;;;;28.67;9.40;;;;;;;;;;4164588;34;20094;-76
2021/07/14 17:29:28;;;;;;;11.82;6.55;;;;;;;;;;4166223;34;20087;-73
2021/07/14 17:32:00;;;;;;;16.65;6.25;;;;;;;;;;4165164;34;20109;-77
2021/07/14 17:34:46;;;;;;;15.27;6.90;;;;;;;;;;4165696;34;20126;-75
2021/07/14 17:37:13;;;;;;;7.45;5.00;;;;;;;;;;4154106;34;20102;-72
2021/07/14 17:39:40;;;;;;;9.68;5.28;;;;;;;;;;4164831;34;20087;-80
2021/07/14 17:42:06;;;;;;;15.40;5.37;;;;;;;;;;4165401;34;20190;-76
2021/07/14 17:45:33;;;;;;;10.65;5.55;;;;;;;;;;4142238;34;20095;-76
2021/07/14 17:47:59;;;;;;;13.05;6.28;;;;;;;;;;4159691;34;20115;-81
2021/07/14 17:50:25;;;;;;;16.70;6.50;;;;;;;;;;4166112;34;20556;-75
2021/07/14 17:52:51;;;;;;;20.40;7.97;;;;;;;;;;4165354;34;20174;-75
2021/07/14 17:55:35;;;;;;;15.18;8.00;;;;;;;;;;4165381;34;20202;-74
2021/07/14 17:58:02;;;;;;;12.88;6.87;;;;;;;;;;4163875;34;20095;-76
2021/07/14 18:00:32;;;;;;;12.32;6.85;;;;;;;;;;4165114;34;20122;-78
2021/07/14 18:03:08;;;;;;;14.13;6.78;;;;;;;;;;4152488;34;20451;-72
2021/07/14 18:05:34;;;;;;;12.02;5.95;;;;;;;;;;4164687;34;20211;-79
2021/07/14 18:08:16;;;;;;;16.05;6.55;;;;;;;;;;4164316;34;20218;-80
2021/07/14 18:10:57;;;;;;;10.55;6.37;;;;;;;;;;4152067;34;20088;-77
2021/07/14 18:13:24;;;;;;;10.90;5.72;;;;;;;;;;4164374;34;20210;-73
2021/07/14 18:15:52;;;;;;;14.15;6.28;;;;;;;;;;4152068;34;20216;-79
2021/07/14 18:18:19;;;;;;;11.90;5.82;;;;;;;;;;4164189;34;20096;-74
2021/07/14 18:20:45;;;;;;;15.57;6.32;;;;;;;;;;4164178;34;20230;-72
2021/07/14 18:23:12;;;;;;;15.23;5.35;;;;;;;;;;4164264;34;20546;-73
2021/07/14 18:25:40;;;;;;;15.27;5.30;;;;;;;;;;4164299;34;20295;-73
2021/07/14 18:28:09;;;;;;;11.07;5.37;;;;;;;;;;4164356;34;20119;-75
2021/07/14 18:30:35;;;;;;;14.38;6.07;;;;;;;;;;4164448;34;20158;-79
2021/07/14 18:33:02;;;;;;;9.77;5.32;;;;;;;;;;4151668;34;20117;-81
2021/07/14 18:35:30;;;;;;;13.93;5.95;;;;;;;;;;4164287;34;20110;-81
2021/07/14 18:38:00;;;;;;;12.65;6.55;;;;;;;;;;4140690;34;20141;-76
2021/07/14 18:40:27;;;;;;;16.85;5.90;;;;;;;;;;4151565;34;20099;-74
2021/07/14 18:42:53;;;;;;;10.45;6.00;;;;;;;;;;4164243;34;20508;-79
2021/07/14 18:45:19;;;;;;;18.08;7.07;;;;;;;;;;4164855;34;20538;-80
2021/07/14 18:47:47;;;;;;;22.67;11.10;;;;;;;;;;4151603;34;20131;-74
2021/07/14 18:50:14;;;;;;;12.63;6.60;;;;;;;;;;4152134;34;20111;-71
2021/07/14 18:52:40;;;;;;;15.30;6.32;;;;;;;;;;4164312;34;20106;-71
2021/07/14 18:55:09;;;;;;;11.48;5.20;;;;;;;;;;4163998;34;20133;-71
2021/07/14 18:57:40;;;;;;;5.97;4.25;;;;;;;;;;4164309;34;20099;-76
2021/07/14 19:00:11;;;;;;;9.30;4.53;;;;;;;;;;4162512;34;20128;-74
2021/07/14 19:02:39;;;;;;;7.12;4.12;;;;;;;;;;4164230;34;20117;-73
2021/07/14 19:05:06;;;;;;;10.13;4.85;;;;;;;;;;4151142;34;20113;-71
2021/07/14 19:07:32;;;;;;;11.23;4.62;;;;;;;;;;4149159;34;20153;-74
2021/07/14 19:09:59;;;;;;;16.62;7.37;;;;;;;;;;4148738;34;20199;-70
2021/07/14 19:12:27;;;;;;;16.33;5.97;;;;;;;;;;4150574;34;20107;-78
2021/07/14 19:18:24;;;;;;;10.52;4.53;;;;;;;;;;4140983;34;20096;-72
2021/07/14 19:20:50;;;;;;;10.98;4.85;;;;;;;;;;4149104;34;20104;-75
2021/07/14 19:23:16;;;;;;;8.32;4.45;;;;;;;;;;4150229;34;20515;-79
2021/07/14 19:25:42;;;;;;;6.12;4.20;;;;;;;;;;4150424;34;20163;-74
2021/07/14 19:28:09;;;;;;;13.32;3.97;;;;;;;;;;4150227;34;20605;-74
2021/07/14 19:30:39;;;;;;;8.88;4.60;;;;;;;;;;4150056;34;20118;-80
2021/07/14 19:33:05;;;;;;;13.93;5.03;;;;;;;;;;4137597;34;20182;-82
2021/07/14 19:35:31;;;;;;;16.35;5.95;;;;;;;;;;4150430;34;20138;-72
2021/07/14 19:37:57;;;;;;;19.35;4.93;;;;;;;;;;4148807;34;20110;-75
2021/07/14 19:40:23;;;;;;;14.52;8.32;;;;;;;;;;4149488;34;20111;-79
2021/07/14 19:42:52;;;;;;;14.73;5.75;;;;;;;;;;4151148;34;20111;-78
2021/07/14 19:45:19;;;;;;;8.50;4.90;;;;;;;;;;4148909;34;20207;-79
2021/07/14 19:47:45;;;;;;;18.85;5.20;;;;;;;;;;4150069;34;20633;-74
2021/07/14 19:50:12;;;;;;;9.45;4.35;;;;;;;;;;4150901;34;20160;-81
2021/07/14 19:52:38;;;;;;;9.90;4.37;;;;;;;;;;4152976;34;20121;-81
2021/07/14 19:55:05;;;;;;;5.97;3.65;;;;;;;;;;4152209;34;20191;-80
2021/07/14 19:57:32;;;;;;;8.55;4.05;;;;;;;;;;4151994;34;20214;-80
2021/07/14 19:59:58;;;;;;;9.27;3.92;;;;;;;;;;4151734;34;20280;-74
2021/07/14 20:02:24;;;;;;;10.57;4.53;;;;;;;;;;4151967;34;20111;-73
2021/07/14 20:04:50;;;;;;;9.13;3.90;;;;;;;;;;4152205;34;20133;-73
2021/07/14 20:07:17;;;;;;;7.68;4.35;;;;;;;;;;4161218;34;20119;-74
2021/07/14 20:09:45;;;;;;;11.27;4.00;;;;;;;;;;4165491;34;20142;-78
2021/07/14 20:12:16;;;;;;;7.25;4.05;;;;;;;;;;4165549;34;20126;-78
2021/07/14 20:14:42;;;;;;;13.75;4.85;;;;;;;;;;4153844;34;20629;-71
2021/07/14 20:17:08;;;;;;;12.15;3.37;;;;;;;;;;4165279;34;20098;-80
2021/07/14 20:19:34;;;;;;;8.55;3.87;;;;;;;;;;4165873;34;20095;-74
2021/07/14 20:22:00;;;;;;;9.50;3.08;;;;;;;;;;4166377;34;20128;-80
2021/07/14 20:24:26;;;;;;;12.98;3.42;;;;;;;;;;4165360;34;20466;-79
2021/07/14 20:26:52;;;;;;;15.50;3.58;;;;;;;;;;4165188;34;20110;-72
2021/07/14 20:29:18;;;;;;;10.50;3.83;;;;;;;;;;4165430;34;20141;-81
2021/07/14 20:31:45;;;;;;;16.05;4.28;;;;;;;;;;4165419;34;20186;-78
2021/07/14 20:34:11;;;;;;;13.35;3.70;;;;;;;;;;4165417;34;20098;-74
2021/07/14 20:36:37;;;;;;;19.50;4.72;;;;;;;;;;4164795;34;20100;-79
2021/07/14 20:39:03;;;;;;;24.23;5.12;;;;;;;;;;4152654;34;20115;-81
2021/07/14 20:41:29;;;;;;;16.87;5.07;;;;;;;;;;4152978;34;20106;-77
2021/07/14 20:43:55;;;;;;;26.73;5.00;;;;;;;;;;4153036;34;20109;-80
2021/07/14 20:46:22;;;;;;;21.05;4.37;;;;;;;;;;4166239;34;20111;-79
2021/07/14 20:48:47;;;;;;;16.80;4.20;;;;;;;;;;4165620;34;20165;-79
2021/07/14 20:51:13;;;;;;;19.48;4.68;;;;;;;;;;4165983;34;20206;-78
2021/07/14 20:53:40;;;;;;;18.73;5.20;;;;;;;;;;4152743;34;20219;-79
2021/07/14 20:56:06;;;;;;;15.00;4.30;;;;;;;;;;4165489;34;20553;-71
2021/07/14 20:58:32;;;;;;;22.17;5.00;;;;;;;;;;4152232;34;20459;-71
2021/07/14 21:00:58;;;;;;;14.73;4.65;;;;;;;;;;4152715;34;20094;-73
2021/07/14 21:03:26;;;;;;;17.40;5.05;;;;;;;;;;4164968;34;20109;-72
2021/07/14 21:05:52;;;;;;;17.67;3.92;;;;;;;;;;4152021;34;20122;-72
2021/07/14 21:08:18;;;;;;;14.48;4.32;;;;;;;;;;4152415;34;20119;-70
2021/07/14 21:10:46;;;;;;;13.68;4.40;;;;;;;;;;4151931;34;20122;-77
2021/07/14 21:13:13;;;;;;;18.35;6.22;;;;;;;;;;4165243;34;20504;-79
2021/07/14 21:15:39;;;;;;;21.77;4.72;;;;;;;;;;4152650;34;20102;-78
2021/07/14 21:18:05;;;;;;;20.25;5.93;;;;;;;;;;4165075;34;20198;-74
2021/07/14 21:20:31;;;;;;;18.62;5.00;;;;;;;;;;4140995;34;20458;-80
2021/07/14 21:22:57;;;;;;;17.92;5.15;;;;;;;;;;4152598;34;20215;-77
2021/07/14 21:25:23;;;;;;;17.25;4.80;;;;;;;;;;4165091;34;20233;-72
2021/07/14 21:27:50;;;;;;;18.00;5.80;;;;;;;;;;4165035;34;20115;-71
2021/07/14 21:30:21;;;;;;;17.37;5.12;;;;;;;;;;4165063;34;20111;-80
2021/07/14 21:32:47;;;;;;;23.60;4.60;;;;;;;;;;4165104;34;20548;-77
2021/07/14 21:35:14;;;;;;;24.77;5.85;;;;;;;;;;4165441;34;20122;-80
2021/07/14 21:37:40;;;;;;;15.75;5.55;;;;;;;;;;4165329;34;20114;-80
2021/07/14 21:40:13;;;;;;;18.58;5.30;;;;;;;;;;4165334;34;20130;-79
2021/07/14 21:42:41;;;;;;;19.10;4.90;;;;;;;;;;4165010;34;20119;-73
2021/07/14 21:45:08;;;;;;;28.83;7.30;;;;;;;;;;4164757;34;20087;-73
2021/07/14 21:47:34;;;;;;;20.88;5.78;;;;;;;;;;4165459;34;20478;-71
2021/07/14 21:50:00;;;;;;;21.83;6.47;;;;;;;;;;4164476;34;20106;-80
2021/07/14 21:52:26;;;;;;;20.20;5.70;;;;;;;;;;4153958;34;20122;-80
2021/07/14 21:54:53;;;;;;;22.75;5.40;;;;;;;;;;4166116;34;20118;-77
2021/07/14 21:57:19;;;;;;;22.40;5.15;;;;;;;;;;4164869;34;20582;-73
2021/07/14 21:59:45;;;;;;;25.65;6.05;;;;;;;;;;4166089;34;20486;-80
2021/07/14 22:02:11;;;;;;;26.10;7.82;;;;;;;;;;4165427;34;20091;-73
2021/07/14 22:04:37;;;;;;;16.40;5.68;;;;;;;;;;4165092;34;20542;-73
2021/07/14 22:07:04;;;;;;;15.60;5.22;;;;;;;;;;4165685;34;20479;-81
2021/07/14 22:09:30;;;;;;;24.83;4.85;;;;;;;;;;4152697;34;20532;-81
2021/07/14 22:11:56;;;;;;;19.25;6.00;;;;;;;;;;4152693;34;20456;-81
2021/07/14 22:14:22;;;;;;;19.60;5.55;;;;;;;;;;4164564;34;20514;-74
2021/07/14 22:16:48;;;;;;;35.70;5.55;;;;;;;;;;4163472;34;20131;-78
2021/07/14 22:19:14;;;;;;;18.37;6.28;;;;;;;;;;4152362;34;20188;-78
2021/07/14 22:21:40;;;;;;;17.30;5.95;;;;;;;;;;4164880;34;20122;-71
2021/07/14 22:24:09;;;;;;;26.12;5.30;;;;;;;;;;4164349;34;20156;-77
2021/07/14 22:26:37;;;;;;;19.15;5.70;;;;;;;;;;4164588;34;20138;-73
2021/07/14 22:29:06;;;;;;;24.30;5.72;;;;;;;;;;4152675;34;20198;-71
2021/07/14 22:31:34;;;;;;;18.75;5.32;;;;;;;;;;4151608;34;20517;-71
2021/07/14 22:34:14;;;;;;;28.33;6.37;;;;;;;;;;4164768;34;20099;-77
2021/07/14 22:36:41;;;;;;;22.45;5.55;;;;;;;;;;4149553;34;20110;-80
2021/07/14 22:39:08;;;;;;;14.93;5.25;;;;;;;;;;4152208;34;20157;-78
2021/07/14 22:41:34;;;;;;;22.30;5.93;;;;;;;;;;4164321;34;20182;-71
2021/07/14 22:44:03;;;;;;;18.30;5.22;;;;;;;;;;4151327;34;20103;-77
2021/07/14 22:46:29;;;;;;;19.20;5.75;;;;;;;;;;4164645;34;20218;-80
2021/07/14 22:48:56;;;;;;;12.70;5.40;;;;;;;;;;4165029;34;20624;-77
2021/07/14 22:51:22;;;;;;;21.25;8.38;;;;;;;;;;4165105;34;20122;-81
2021/07/14 22:53:48;;;;;;;19.25;6.97;;;;;;;;;;4164155;34;20151;-72
2021/07/14 22:56:14;;;;;;;26.65;6.65;;;;;;;;;;4164037;34;20194;-73
2021/07/14 22:58:40;;;;;;;18.33;6.20;;;;;;;;;;4163725;34;20114;-78
2021/07/14 23:01:06;;;;;;;28.70;8.00;;;;;;;;;;4164684;34;20151;-74
2021/07/14 23:03:33;;;;;;;21.02;7.18;;;;;;;;;;4151969;34;20518;-73
2021/07/14 23:06:01;;;;;;;24.52;7.20;;;;;;;;;;4163752;34;20522;-78
2021/07/14 23:08:27;;;;;;;21.77;6.82;;;;;;;;;;4151791;34;20517;-81
2021/07/14 23:10:53;;;;;;;43.42;12.43;;;;;;;;;;4164673;34;20510;-72
2021/07/14 23:13:19;;;;;;;17.37;7.40;;;;;;;;;;4164270;34;20463;-72
2021/07/14 23:15:46;;;;;;;21.23;7.28;;;;;;;;;;4163865;34;20138;-82
2021/07/14 23:18:12;;;;;;;24.98;8.18;;;;;;;;;;4164543;34;20102;-72
2021/07/14 23:20:39;;;;;;;18.48;7.53;;;;;;;;;;4163714;34;20128;-72
2021/07/14 23:23:05;;;;;;;14.48;6.05;;;;;;;;;;4163984;34;20134;-78
2021/07/14 23:25:31;;;;;;;16.27;6.40;;;;;;;;;;4163234;34;20118;-78
2021/07/14 23:27:58;;;;;;;18.80;7.25;;;;;;;;;;4151324;34;20201;-70
2021/07/14 23:30:25;;;;;;;16.17;6.12;;;;;;;;;;4163893;34;20559;-71
2021/07/14 23:32:51;;;;;;;20.17;5.87;;;;;;;;;;4151437;34;20517;-76
2021/07/14 23:35:18;;;;;;;14.93;5.62;;;;;;;;;;4151590;34;20514;-73
2021/07/14 23:37:44;;;;;;;22.95;5.47;;;;;;;;;;4163433;34;20114;-74
2021/07/14 23:40:11;;;;;;;14.25;5.70;;;;;;;;;;4151311;34;20206;-74
2021/07/14 23:42:42;;;;;;;18.20;6.05;;;;;;;;;;4163945;34;20121;-72
2021/07/14 23:45:08;;;;;;;17.73;6.53;;;;;;;;;;4163828;34;20546;-73
2021/07/14 23:47:35;;;;;;;25.48;7.25;;;;;;;;;;4164074;34;20121;-71
2021/07/14 23:50:02;;;;;;;21.75;5.90;;;;;;;;;;4151138;34;20130;-78
2021/07/14 23:52:29;;;;;;;17.15;6.00;;;;;;;;;;4163629;34;20199;-78
2021/07/14 23:54:55;;;;;;;20.70;5.80;;;;;;;;;;4151014;34;20207;-72
2021/07/14 23:57:21;;;;;;;17.52;7.10;;;;;;;;;;4163593;34;20114;-73
2021/07/14 23:59:47;;;;;;;19.02;5.97;;;;;;;;;;4163820;34;20122;-81
